createdAt,value
2022-08-29T00:01:02.281Z,3.85
2022-08-29T00:06:27.864Z,2.15
2022-08-29T00:11:49.575Z,2.00
2022-08-29T00:17:11.270Z,2.55
2022-08-29T00:22:33.307Z,0.90
2022-08-29T00:27:55.289Z,2.05
2022-08-29T00:33:17.969Z,1.67
2022-08-29T00:38:40.224Z,4.20
2022-08-29T00:44:05.145Z,1.80
2022-08-29T00:49:32.270Z,1.83
2022-08-29T00:54:55.988Z,1.60
2022-08-29T01:00:18.360Z,1.65
2022-08-29T01:05:40.433Z,2.38
2022-08-29T01:11:22.686Z,1.63
2022-08-29T01:16:48.723Z,1.45
2022-08-29T01:22:25.678Z,1.80
2022-08-29T01:27:54.931Z,3.35
2022-08-29T01:33:16.614Z,1.40
2022-08-29T01:38:39.374Z,2.28
2022-08-29T01:44:02.091Z,2.20
2022-08-29T01:49:24.607Z,1.55
2022-08-29T01:54:46.876Z,3.83
2022-08-29T02:00:11.060Z,1.05
2022-08-29T02:05:36.896Z,1.13
2022-08-29T02:10:58.707Z,1.40
2022-08-29T02:16:20.509Z,1.70
2022-08-29T02:21:42.297Z,0.93
2022-08-29T02:27:04.384Z,3.05
2022-08-29T02:32:26.647Z,2.85
2022-08-29T02:37:48.583Z,3.25
2022-08-29T02:43:10.642Z,1.92
2022-08-29T02:48:32.588Z,1.35
2022-08-29T02:53:55.690Z,3.42
2022-08-29T02:59:17.487Z,1.48
2022-08-29T03:04:39.234Z,2.30
2022-08-29T03:10:01.262Z,1.85
2022-08-29T03:15:23.611Z,2.88
2022-08-29T03:20:45.865Z,1.90
2022-08-29T03:26:08.923Z,1.70
2022-08-29T03:31:30.664Z,2.42
2022-08-29T03:36:52.421Z,1.98
2022-08-29T03:42:14.213Z,2.00
2022-08-29T03:47:36.108Z,2.03
2022-08-29T03:52:57.903Z,3.63
2022-08-29T03:58:19.758Z,4.57
2022-08-29T04:03:41.464Z,5.70
2022-08-29T04:09:03.200Z,1.80
2022-08-29T04:14:25.534Z,4.47
2022-08-29T04:19:47.218Z,2.80
2022-08-29T04:25:12.501Z,2.67
2022-08-29T04:35:57.269Z,3.88
2022-08-29T04:41:19.754Z,3.13
2022-08-29T04:46:41.608Z,3.13
2022-08-29T04:52:03.615Z,2.58
2022-08-29T04:57:25.321Z,3.28
2022-08-29T05:02:47.652Z,1.75
2022-08-29T05:08:09.526Z,3.55
2022-08-29T05:13:31.304Z,2.20
2022-08-29T05:18:53.093Z,3.22
2022-08-29T05:24:14.866Z,2.60
2022-08-29T05:29:41.022Z,6.07
2022-08-29T05:35:04.254Z,7.32
2022-08-29T05:40:26.774Z,7.45
2022-08-29T05:45:48.821Z,2.90
2022-08-29T05:51:21.987Z,5.25
2022-08-29T05:56:44.184Z,4.75
2022-08-29T06:02:08.348Z,3.95
2022-08-29T06:07:31.093Z,4.85
2022-08-29T06:12:52.813Z,7.93
2022-08-29T06:18:14.747Z,5.13
2022-08-29T06:23:36.758Z,4.40
2022-08-29T06:28:58.864Z,5.47
2022-08-29T06:34:20.688Z,4.32
2022-08-29T06:39:42.475Z,9.57
2022-08-29T06:45:06.488Z,4.03
2022-08-29T06:50:28.564Z,3.92
2022-08-29T06:55:50.305Z,5.22
2022-08-29T07:01:17.227Z,5.28
2022-08-29T07:12:01.069Z,4.82
2022-08-29T07:17:25.874Z,4.13
2022-08-29T07:22:51.501Z,8.02
2022-08-29T07:33:35.345Z,6.47
2022-08-29T07:38:57.197Z,7.35
2022-08-29T07:44:19.409Z,5.50
2022-08-29T07:49:41.994Z,8.27
2022-08-29T07:55:05.453Z,6.10
2022-08-29T08:00:28.560Z,7.40
2022-08-29T08:05:50.368Z,10.10
2022-08-29T08:11:13.300Z,6.55
2022-08-29T08:16:35.452Z,8.57
2022-08-29T08:21:59.134Z,4.53
2022-08-29T08:27:20.879Z,7.60
2022-08-29T08:32:46.392Z,5.85
2022-08-29T08:38:11.806Z,6.57
2022-08-29T08:43:54.177Z,3.78
2022-08-29T08:49:42.587Z,4.45
2022-08-29T08:55:23.090Z,6.40
2022-08-29T09:01:00.739Z,6.78
2022-08-29T09:07:00.908Z,7.32
2022-08-29T09:12:32.773Z,13.07
2022-08-29T09:18:13.567Z,12.98
2022-08-29T09:23:47.729Z,7.63
2022-08-29T09:29:12.113Z,17.45
2022-08-29T09:34:57.486Z,9.30
2022-08-29T09:40:20.603Z,5.85
2022-08-29T09:46:23.593Z,7.28
2022-08-29T09:51:48.731Z,7.60
2022-08-29T09:57:14.169Z,10.05
2022-08-29T10:02:54.661Z,7.57
2022-08-29T10:08:25.153Z,4.80
2022-08-29T10:13:56.893Z,4.07
2022-08-29T10:19:33.071Z,6.22
2022-08-29T10:25:21.014Z,5.90
2022-08-29T10:31:05.420Z,5.30
2022-08-29T10:36:33.479Z,4.35
2022-08-29T10:42:19.549Z,6.53
2022-08-29T10:48:01.425Z,6.97
2022-08-29T10:53:38.998Z,3.78
2022-08-29T10:59:14.128Z,5.07
2022-08-29T11:04:44.605Z,5.53
2022-08-29T11:10:15.374Z,10.85
2022-08-29T11:15:39.812Z,13.85
2022-08-29T11:21:10.226Z,10.00
2022-08-29T11:26:44.338Z,8.40
2022-08-29T11:32:36.169Z,4.85
2022-08-29T11:38:41.364Z,5.45
2022-08-29T11:44:18.876Z,6.10
2022-08-29T11:49:45.613Z,6.22
2022-08-29T11:55:24.154Z,5.28
2022-08-29T12:00:54.344Z,6.95
2022-08-29T12:06:24.778Z,8.95
2022-08-29T12:12:12.824Z,5.55
2022-08-29T12:17:58.135Z,4.72
2022-08-29T12:23:25.117Z,7.38
2022-08-29T12:28:59.282Z,6.53
2022-08-29T12:34:36.305Z,3.97
2022-08-29T12:40:29.047Z,4.82
2022-08-29T12:45:52.348Z,5.28
2022-08-29T12:51:57.125Z,4.63
2022-08-29T12:57:23.632Z,5.47
2022-08-29T13:03:02.492Z,9.20
2022-08-29T13:08:30.105Z,6.38
2022-08-29T13:14:03.020Z,7.03
2022-08-29T13:19:25.243Z,4.68
2022-08-29T13:24:46.982Z,6.10
2022-08-29T13:30:09.077Z,5.30
2022-08-29T13:35:33.721Z,4.20
2022-08-29T13:40:59.883Z,5.63
2022-08-29T13:46:27.639Z,5.68
2022-08-29T13:51:50.104Z,6.38
2022-08-29T13:57:24.692Z,3.45
2022-08-29T14:02:46.519Z,3.95
2022-08-29T14:08:11.361Z,5.25
2022-08-29T14:13:33.072Z,5.15
2022-08-29T14:18:54.911Z,6.07
2022-08-29T14:24:17.044Z,5.32
2022-08-29T14:29:40.832Z,4.85
2022-08-29T14:35:03.046Z,6.53
2022-08-29T14:40:25.621Z,4.20
2022-08-29T14:45:47.950Z,4.85
2022-08-29T14:51:09.694Z,4.07
2022-08-29T14:56:50.302Z,4.70
2022-08-29T15:02:12.765Z,6.03
2022-08-29T15:07:34.885Z,5.45
2022-08-29T15:12:56.637Z,4.00
2022-08-29T15:18:59.525Z,6.60
2022-08-29T15:24:05.390Z,4.00
2022-08-29T15:29:27.537Z,5.50
2022-08-29T15:34:49.765Z,5.03
2022-08-29T15:40:13.467Z,7.88
2022-08-29T15:45:35.597Z,7.35
2022-08-29T15:50:58.253Z,4.40
2022-08-29T15:56:20.128Z,5.07
2022-08-29T16:01:50.630Z,6.05
2022-08-29T16:07:15.891Z,5.60
2022-08-29T16:12:37.954Z,4.55
2022-08-29T16:18:00.329Z,7.85
2022-08-29T16:23:22.044Z,6.32
2022-08-29T16:28:43.814Z,4.45
2022-08-29T16:34:05.824Z,5.07
2022-08-29T16:39:29.109Z,7.00
2022-08-29T16:44:50.786Z,6.47
2022-08-29T16:50:12.531Z,3.38
2022-08-29T16:55:34.317Z,6.57
2022-08-29T17:00:56.394Z,5.03
2022-08-29T17:06:18.091Z,3.85
2022-08-29T17:11:40.221Z,6.47
2022-08-29T17:17:03.210Z,3.10
2022-08-29T17:22:25.209Z,7.30
2022-08-29T17:28:00.806Z,10.25
2022-08-29T17:33:29.893Z,5.22
2022-08-29T17:38:51.664Z,4.35
2022-08-29T17:44:14.356Z,5.30
2022-08-29T17:49:36.096Z,7.47
2022-08-29T17:54:58.572Z,4.50
2022-08-29T18:00:21.787Z,6.25
2022-08-29T18:05:43.529Z,6.50
2022-08-29T18:11:05.575Z,4.60
2022-08-29T18:16:28.531Z,10.10
2022-08-29T18:21:52.003Z,5.47
2022-08-29T18:27:13.981Z,9.75
2022-08-29T18:32:37.260Z,14.80
2022-08-29T18:37:59.246Z,5.05
2022-08-29T18:43:22.714Z,9.30
2022-08-29T18:48:45.040Z,9.27
2022-08-29T18:54:06.906Z,8.98
2022-08-29T18:59:29.749Z,8.48
2022-08-29T19:04:52.258Z,7.47
2022-08-29T19:10:14.115Z,8.32
2022-08-29T19:15:41.513Z,6.45
2022-08-29T19:21:06.537Z,18.63
2022-08-29T19:26:32.468Z,8.25
2022-08-29T19:31:54.266Z,14.55
2022-08-29T19:37:16.021Z,7.40
2022-08-29T19:42:38.758Z,9.55
2022-08-29T19:48:00.973Z,8.52
2022-08-29T19:53:26.165Z,14.52
2022-08-29T19:58:49.431Z,10.70
2022-08-29T20:04:11.688Z,24.20
2022-08-29T20:09:34.335Z,15.85
2022-08-29T20:14:56.646Z,11.68
2022-08-29T20:20:24.352Z,10.05
2022-08-29T20:25:46.345Z,16.63
2022-08-29T20:31:08.773Z,17.15
2022-08-29T20:36:49.531Z,8.85
2022-08-29T20:42:11.226Z,12.90
2022-08-29T20:47:32.966Z,9.00
2022-08-29T20:52:54.720Z,17.25
2022-08-29T20:58:16.735Z,7.80
2022-08-29T21:03:56.773Z,7.60
2022-08-29T21:09:18.916Z,10.77
2022-08-29T21:14:41.345Z,6.75
2022-08-29T21:20:03.531Z,3.75
2022-08-29T21:25:25.536Z,8.07
2022-08-29T21:30:47.260Z,8.45
2022-08-29T21:36:18.996Z,6.68
2022-08-29T21:41:43.781Z,3.45
2022-08-29T21:47:06.777Z,6.97
2022-08-29T21:52:28.624Z,6.90
2022-08-29T21:57:52.881Z,2.17
2022-08-29T22:03:15.260Z,4.47
2022-08-29T22:08:37.438Z,3.15
2022-08-29T22:13:59.176Z,3.80
2022-08-29T22:19:21.149Z,5.10
2022-08-29T22:24:42.866Z,4.05
2022-08-29T22:30:06.966Z,4.40
2022-08-29T22:35:29.241Z,1.92
2022-08-29T22:40:51.172Z,1.95
2022-08-29T22:46:16.709Z,2.90
2022-08-29T22:51:38.566Z,2.97
2022-08-29T22:57:00.590Z,2.88
2022-08-29T23:02:22.346Z,3.17
2022-08-29T23:07:44.505Z,3.33
2022-08-29T23:13:06.250Z,2.60
2022-08-29T23:18:28.587Z,3.20
2022-08-29T23:23:51.477Z,2.33
2022-08-29T23:29:13.390Z,2.53
2022-08-29T23:34:35.497Z,3.53
2022-08-29T23:39:57.252Z,2.13
2022-08-29T23:45:19.469Z,2.08
2022-08-29T23:50:41.692Z,3.17
2022-08-29T23:56:12.787Z,3.45
